Time;durP1;ratioP1;P1;durP2;ratioP2;P2;SDS_P1;SDS_P2;PMS_P1;PMS_P2;Temp;Humidity;BMP_temperature;BMP_pressure;BME280_temperature;BME280_humidity;BME280_pressure;Samples;Min_cycle;Max_cycle;Signal;HPM_P1;HPM_P2
2022/07/11 00:02:11;;;;;;;8.93;2.50;;;10.40;98.00;;;;;;5118543;27;20070;-64
2022/07/11 00:04:37;;;;;;;6.28;2.40;;;10.40;98.00;;;;;;5117123;28;20324;-62
2022/07/11 00:07:05;;;;;;;5.45;2.50;;;10.40;98.00;;;;;;5118662;27;20084;-62
2022/07/11 00:09:31;;;;;;;5.43;2.67;;;10.40;98.00;;;;;;5117398;28;20084;-63
2022/07/11 00:11:57;;;;;;;7.53;2.55;;;10.40;98.00;;;;;;5117434;28;20305;-64
2022/07/11 00:14:23;;;;;;;6.22;2.40;;;10.30;98.00;;;;;;5119260;28;20035;-64
2022/07/11 00:16:50;;;;;;;5.78;2.40;;;10.30;97.80;;;;;;5116249;28;20031;-64
2022/07/11 00:19:16;;;;;;;5.75;2.60;;;10.20;97.60;;;;;;5121430;27;20028;-64
2022/07/11 00:21:42;;;;;;;6.00;2.55;;;10.20;97.70;;;;;;5116021;28;20023;-64
2022/07/11 00:24:07;;;;;;;5.32;2.15;;;10.20;97.70;;;;;;5127093;27;20050;-64
2022/07/11 00:26:37;;;;;;;4.97;2.28;;;10.30;97.90;;;;;;5118153;27;20046;-64
2022/07/11 00:29:04;;;;;;;5.50;2.53;;;10.20;97.80;;;;;;5115895;27;20030;-63
2022/07/11 00:31:32;;;;;;;4.88;2.30;;;10.20;97.70;;;;;;5116362;27;20034;-64
2022/07/11 00:33:59;;;;;;;5.30;2.35;;;10.10;97.60;;;;;;5114978;27;20027;-65
2022/07/11 00:36:25;;;;;;;6.07;2.55;;;10.10;97.70;;;;;;5121690;27;20032;-64
2022/07/11 00:38:51;;;;;;;8.50;3.20;;;10.10;97.70;;;;;;5115090;27;20025;-65
2022/07/11 00:41:17;;;;;;;7.60;2.40;;;10.10;97.80;;;;;;5115353;27;20404;-64
2022/07/11 00:43:43;;;;;;;7.70;2.58;;;10.10;97.70;;;;;;5116571;27;20027;-63
2022/07/11 00:46:09;;;;;;;6.43;2.45;;;10.10;97.80;;;;;;5107666;27;20048;-64
2022/07/11 00:48:39;;;;;;;5.05;2.30;;;10.10;97.80;;;;;;5101132;27;20015;-64
2022/07/11 00:51:05;;;;;;;6.78;2.83;;;10.00;97.60;;;;;;5119825;27;20020;-64
2022/07/11 00:53:31;;;;;;;4.60;2.10;;;10.00;97.50;;;;;;5117233;27;20106;-64
2022/07/11 00:55:59;;;;;;;6.47;2.50;;;9.90;97.20;;;;;;5112702;27;20031;-64
2022/07/11 00:58:25;;;;;;;5.15;2.30;;;9.90;97.10;;;;;;5105092;28;20056;-64
2022/07/11 01:00:51;;;;;;;6.13;2.35;;;9.90;97.20;;;;;;5117343;27;20023;-64
2022/07/11 01:03:17;;;;;;;6.60;2.50;;;9.90;97.10;;;;;;5117318;28;20088;-64
2022/07/11 01:05:43;;;;;;;6.90;2.38;;;10.00;97.30;;;;;;5117080;28;20344;-64
2022/07/11 01:08:08;;;;;;;6.80;2.65;;;10.00;97.50;;;;;;5103214;28;20031;-64
2022/07/11 01:10:39;;;;;;;6.10;3.15;;;10.00;97.60;;;;;;5111095;27;20023;-64
2022/07/11 01:13:07;;;;;;;5.13;2.30;;;9.90;97.40;;;;;;5101412;27;20024;-64
2022/07/11 01:15:35;;;;;;;8.00;2.33;;;9.90;97.30;;;;;;5103728;28;20092;-64
2022/07/11 01:18:01;;;;;;;6.60;2.40;;;9.70;96.90;;;;;;5116627;27;20023;-64
2022/07/11 01:20:27;;;;;;;4.80;2.50;;;9.70;96.40;;;;;;5116058;28;20023;-64
2022/07/11 01:22:56;;;;;;;4.93;2.60;;;9.60;96.30;;;;;;5116950;27;20038;-64
2022/07/11 01:25:31;;;;;;;5.30;2.35;;;9.60;96.10;;;;;;5114716;28;20019;-64
2022/07/11 01:28:01;;;;;;;6.78;2.80;;;9.40;95.90;;;;;;5114432;28;20031;-64
2022/07/11 01:30:28;;;;;;;8.13;2.80;;;9.50;95.40;;;;;;5114984;28;20031;-64
2022/07/11 01:32:54;;;;;;;9.70;2.63;;;9.50;95.60;;;;;;5115415;27;20102;-64
2022/07/11 01:35:21;;;;;;;5.43;2.20;;;9.60;95.90;;;;;;5114888;27;21565;-64
2022/07/11 01:37:47;;;;;;;6.55;2.45;;;9.80;96.20;;;;;;5113630;28;20047;-64
2022/07/11 01:40:13;;;;;;;5.15;2.40;;;9.90;96.80;;;;;;5117429;28;20441;-64
2022/07/11 01:42:39;;;;;;;5.00;2.53;;;10.00;97.30;;;;;;5115126;27;20046;-64
2022/07/11 01:45:05;;;;;;;6.57;2.40;;;10.10;97.30;;;;;;5114170;28;20044;-64
2022/07/11 01:47:30;;;;;;;8.35;2.50;;;10.10;97.50;;;;;;5116771;28;20024;-64
2022/07/11 01:49:56;;;;;;;4.25;2.35;;;10.20;97.60;;;;;;5110487;28;20507;-64
2022/07/11 01:52:25;;;;;;;5.78;2.17;;;10.20;97.50;;;;;;5104695;28;20020;-64
2022/07/11 01:54:51;;;;;;;5.45;2.70;;;10.20;97.50;;;;;;5114243;28;20035;-64
2022/07/11 01:57:17;;;;;;;5.40;2.00;;;10.10;97.30;;;;;;5115304;28;20401;-64
2022/07/11 01:59:42;;;;;;;5.13;2.53;;;10.10;97.30;;;;;;5113297;28;20016;-64
2022/07/11 02:02:08;;;;;;;6.07;2.45;;;10.10;97.30;;;;;;5115304;28;20417;-64
2022/07/11 02:04:34;;;;;;;5.53;3.47;;;10.20;97.30;;;;;;5116368;28;20412;-64
2022/07/11 02:06:59;;;;;;;5.93;2.50;;;10.20;97.50;;;;;;5114733;28;20024;-64
2022/07/11 02:09:25;;;;;;;5.30;2.47;;;10.30;97.70;;;;;;5114522;28;20035;-64
2022/07/11 02:11:51;;;;;;;6.65;2.40;;;10.30;97.80;;;;;;5115310;28;20055;-64
2022/07/11 02:14:16;;;;;;;4.93;2.22;;;10.30;97.90;;;;;;5115208;28;20384;-64
2022/07/11 02:16:42;;;;;;;5.55;2.45;;;10.30;97.90;;;;;;5105018;27;20027;-64
2022/07/11 02:19:10;;;;;;;5.15;2.67;;;10.30;97.60;;;;;;5114863;28;20115;-64
2022/07/11 02:21:36;;;;;;;4.78;2.30;;;10.30;97.50;;;;;;5113999;27;20159;-64
2022/07/11 02:24:02;;;;;;;6.00;2.38;;;10.20;97.30;;;;;;5112985;28;20028;-64
2022/07/11 02:26:28;;;;;;;4.57;2.20;;;10.20;97.40;;;;;;5113596;28;20031;-63
2022/07/11 02:28:56;;;;;;;4.63;2.20;;;10.20;97.30;;;;;;5115995;28;20032;-64
2022/07/11 02:31:22;;;;;;;5.30;2.78;;;10.20;97.00;;;;;;5115275;28;20023;-63
2022/07/11 02:33:48;;;;;;;4.88;2.30;;;10.20;97.30;;;;;;5110462;28;20024;-66
2022/07/11 02:36:13;;;;;;;7.68;2.42;;;10.20;97.10;;;;;;5115509;27;20027;-66
2022/07/11 02:38:39;;;;;;;4.70;2.40;;;10.10;97.30;;;;;;5114293;28;20058;-64
2022/07/11 02:41:05;;;;;;;6.88;3.15;;;10.10;97.00;;;;;;5114683;28;20023;-65
2022/07/11 02:43:31;;;;;;;5.78;2.30;;;10.00;96.80;;;;;;5114976;28;20028;-65
2022/07/11 02:45:57;;;;;;;8.15;2.58;;;9.90;96.50;;;;;;5114274;28;20046;-64
2022/07/11 02:48:22;;;;;;;4.75;2.50;;;9.90;96.30;;;;;;5114687;28;20032;-64
2022/07/11 02:50:48;;;;;;;5.50;2.22;;;9.90;96.30;;;;;;5110152;28;20047;-64
2022/07/11 02:53:14;;;;;;;5.93;2.30;;;9.90;96.40;;;;;;5112717;28;20027;-65
2022/07/11 02:55:40;;;;;;;8.55;2.53;;;9.80;96.10;;;;;;5116231;27;20027;-64
2022/07/11 02:58:06;;;;;;;5.05;2.40;;;9.90;96.00;;;;;;5109149;27;20028;-64
2022/07/11 03:00:32;;;;;;;6.57;2.60;;;9.90;96.00;;;;;;5113822;28;20038;-64
2022/07/11 03:02:58;;;;;;;4.93;2.65;;;9.80;96.10;;;;;;5115611;28;20031;-64
2022/07/11 03:05:24;;;;;;;5.88;2.45;;;9.80;95.80;;;;;;5113402;28;20114;-64
2022/07/11 03:07:50;;;;;;;6.80;2.50;;;9.60;95.70;;;;;;5114457;28;20016;-64
2022/07/11 03:10:16;;;;;;;6.55;2.50;;;9.50;95.30;;;;;;5112969;28;20084;-64
2022/07/11 03:12:42;;;;;;;6.63;3.35;;;9.40;95.10;;;;;;5115409;28;20368;-64
2022/07/11 03:15:08;;;;;;;5.68;2.75;;;9.40;94.50;;;;;;5114154;28;20028;-64
2022/07/11 03:17:35;;;;;;;6.03;2.78;;;9.50;93.90;;;;;;5115573;28;20055;-64
2022/07/11 03:20:02;;;;;;;6.40;2.92;;;9.60;94.30;;;;;;5117490;28;20019;-64
2022/07/11 03:22:28;;;;;;;4.03;2.42;;;9.60;94.40;;;;;;5115621;27;20480;-64
2022/07/11 03:24:53;;;;;;;6.95;2.85;;;9.70;94.30;;;;;;5116866;28;20092;-63
2022/07/11 03:27:20;;;;;;;4.43;2.65;;;9.70;94.10;;;;;;5117199;27;20452;-64
2022/07/11 03:29:46;;;;;;;4.78;2.92;;;9.70;94.20;;;;;;5119409;27;20038;-64
2022/07/11 03:32:11;;;;;;;4.60;2.70;;;9.60;94.50;;;;;;5123091;27;20023;-64
2022/07/11 03:34:37;;;;;;;5.13;2.80;;;9.60;94.00;;;;;;5121160;27;20096;-64
2022/07/11 03:37:03;;;;;;;7.40;3.20;;;9.60;93.90;;;;;;5120093;28;20028;-64
2022/07/11 03:39:29;;;;;;;6.70;2.85;;;9.60;94.00;;;;;;5111840;27;20443;-64
2022/07/11 03:42:01;;;;;;;7.70;2.85;;;9.60;94.10;;;;;;5118686;27;20032;-63
2022/07/11 03:44:27;;;;;;;8.70;2.90;;;9.60;93.60;;;;;;5113875;28;20039;-64
2022/07/11 03:46:52;;;;;;;6.53;2.92;;;9.60;94.20;;;;;;5114987;28;20050;-63
2022/07/11 03:49:18;;;;;;;5.25;2.78;;;9.50;93.80;;;;;;5116479;27;20020;-63
2022/07/11 03:51:46;;;;;;;8.63;3.63;;;9.60;93.60;;;;;;5115501;28;20024;-64
2022/07/11 03:54:13;;;;;;;8.07;3.50;;;9.50;93.80;;;;;;5114851;28;20024;-64
2022/07/11 03:56:39;;;;;;;6.35;3.40;;;9.50;93.80;;;;;;5117093;28;20031;-64
2022/07/11 03:59:04;;;;;;;7.65;3.13;;;9.50;93.30;;;;;;5114461;28;20016;-64
2022/07/11 04:01:30;;;;;;;6.32;3.00;;;9.50;93.30;;;;;;5113080;27;20032;-64
2022/07/11 04:03:56;;;;;;;5.85;3.10;;;9.60;93.30;;;;;;5115585;27;20027;-64
2022/07/11 04:06:21;;;;;;;5.50;2.90;;;9.60;93.30;;;;;;5117833;27;20016;-64
2022/07/11 04:08:50;;;;;;;6.15;3.30;;;9.60;93.30;;;;;;5111577;27;20024;-64
2022/07/11 04:11:16;;;;;;;7.10;3.40;;;9.70;93.00;;;;;;5112412;27;20024;-64
2022/07/11 04:13:42;;;;;;;5.45;3.17;;;9.70;93.20;;;;;;5116047;28;20027;-64
2022/07/11 04:16:07;;;;;;;5.78;3.08;;;9.70;93.50;;;;;;5119790;27;20027;-63
2022/07/11 04:18:33;;;;;;;5.45;3.70;;;9.70;93.50;;;;;;5119996;27;20028;-64
2022/07/11 04:20:58;;;;;;;6.88;3.70;;;9.70;93.50;;;;;;5109121;28;20023;-64
2022/07/11 04:23:27;;;;;;;7.20;3.80;;;9.70;93.60;;;;;;5115694;28;20028;-64
2022/07/11 04:25:54;;;;;;;6.32;4.00;;;9.70;93.50;;;;;;5117502;28;20027;-64
2022/07/11 04:28:19;;;;;;;8.52;3.90;;;9.70;93.30;;;;;;5114973;28;20103;-64
2022/07/11 04:30:45;;;;;;;6.82;3.90;;;9.70;93.20;;;;;;5115364;28;20103;-64
2022/07/11 04:33:10;;;;;;;7.65;3.80;;;9.70;92.90;;;;;;5114425;28;20020;-64
2022/07/11 04:35:36;;;;;;;7.10;3.70;;;9.70;92.90;;;;;;5111127;28;20032;-64
2022/07/11 04:38:02;;;;;;;10.15;4.35;;;9.70;92.60;;;;;;5117570;28;20073;-63
2022/07/11 04:40:30;;;;;;;7.18;3.60;;;9.70;92.50;;;;;;5118831;28;20413;-64
2022/07/11 04:42:56;;;;;;;6.65;4.22;;;9.80;92.60;;;;;;5104583;28;20089;-64
2022/07/11 04:45:22;;;;;;;6.55;4.03;;;9.80;92.30;;;;;;5102203;28;20028;-63
2022/07/11 04:47:47;;;;;;;8.35;4.97;;;9.90;92.00;;;;;;5118617;28;20102;-64
2022/07/11 04:50:13;;;;;;;6.38;4.07;;;9.90;92.00;;;;;;5117006;28;20024;-64
2022/07/11 04:52:41;;;;;;;7.03;4.32;;;10.00;92.40;;;;;;5115171;28;20051;-64
2022/07/11 04:55:07;;;;;;;9.32;4.85;;;10.00;92.40;;;;;;5118756;28;20024;-64
2022/07/11 04:57:32;;;;;;;8.35;4.40;;;10.10;92.30;;;;;;5116773;28;20054;-64
2022/07/11 04:59:58;;;;;;;7.78;4.07;;;10.10;92.30;;;;;;5117137;28;20456;-63
2022/07/11 05:02:24;;;;;;;7.38;4.40;;;10.10;92.40;;;;;;5118547;28;20032;-64
2022/07/11 05:04:49;;;;;;;7.38;4.38;;;10.10;92.60;;;;;;5117384;28;20030;-64
2022/07/11 05:07:15;;;;;;;5.50;4.10;;;10.10;93.10;;;;;;5118701;28;20019;-64
2022/07/11 05:09:41;;;;;;;7.35;4.03;;;10.10;93.00;;;;;;5117215;28;20019;-64
2022/07/11 05:12:08;;;;;;;7.28;4.05;;;10.20;92.80;;;;;;5118410;28;20031;-64
2022/07/11 05:14:33;;;;;;;6.70;3.95;;;10.30;92.70;;;;;;5117403;28;20397;-64
2022/07/11 05:16:59;;;;;;;6.22;3.60;;;10.50;93.00;;;;;;5118129;28;20028;-64
2022/07/11 05:19:25;;;;;;;5.43;3.58;;;10.60;93.70;;;;;;5118309;28;20024;-63
2022/07/11 05:21:51;;;;;;;6.28;3.90;;;10.70;94.00;;;;;;5118199;28;20026;-63
2022/07/11 05:24:18;;;;;;;6.63;3.22;;;10.80;94.20;;;;;;5116953;28;20024;-63
2022/07/11 05:26:44;;;;;;;6.25;3.60;;;10.90;94.40;;;;;;5118096;28;20020;-63
2022/07/11 05:29:10;;;;;;;7.47;3.53;;;11.00;95.50;;;;;;5117029;28;20094;-66
2022/07/11 05:31:39;;;;;;;6.88;3.72;;;11.10;95.70;;;;;;5118059;28;20106;-65
2022/07/11 05:34:05;;;;;;;7.28;3.20;;;11.20;96.10;;;;;;5117808;28;20016;-64
2022/07/11 05:36:30;;;;;;;4.45;2.50;;;11.40;96.50;;;;;;5117840;28;20032;-64
2022/07/11 05:38:57;;;;;;;5.78;2.42;;;11.60;97.60;;;;;;5116751;28;20024;-64
2022/07/11 05:41:23;;;;;;;5.15;2.20;;;11.80;98.00;;;;;;5117781;28;20024;-64
2022/07/11 05:43:51;;;;;;;7.13;2.85;;;12.00;98.00;;;;;;5116718;28;20042;-64
2022/07/11 05:46:16;;;;;;;6.80;2.20;;;12.30;98.00;;;;;;5116256;28;20488;-65
2022/07/11 05:48:42;;;;;;;6.28;2.40;;;12.40;98.00;;;;;;5117539;28;20028;-64
2022/07/11 05:51:08;;;;;;;5.38;2.30;;;12.60;98.00;;;;;;5117721;28;20305;-64
2022/07/11 05:53:36;;;;;;;6.75;2.40;;;12.90;98.00;;;;;;5115279;28;20313;-64
2022/07/11 05:56:02;;;;;;;5.57;2.47;;;12.90;97.50;;;;;;5114815;28;20027;-64
2022/07/11 05:58:27;;;;;;;5.95;3.08;;;13.20;97.40;;;;;;5117198;28;20103;-64
2022/07/11 06:00:53;;;;;;;6.18;2.38;;;13.30;97.00;;;;;;5117313;28;20065;-64
2022/07/11 06:03:18;;;;;;;4.28;2.00;;;13.40;96.50;;;;;;5114335;28;20436;-64
2022/07/11 06:05:44;;;;;;;6.88;2.47;;;13.60;96.20;;;;;;5116086;28;20030;-64
2022/07/11 06:10:55;;;;;;;;;;;13.70;96.10;;;;;;5112479;28;20438;-64
2022/07/11 06:13:21;;;;;;;6.45;2.90;;;13.90;95.80;;;;;;5116622;28;19912;-64
2022/07/11 06:15:47;;;;;;;5.85;2.50;;;14.00;95.30;;;;;;5115280;28;20028;-64
2022/07/11 06:18:12;;;;;;;7.93;2.80;;;14.00;94.90;;;;;;5116859;28;20031;-64
2022/07/11 06:20:38;;;;;;;7.63;3.05;;;14.10;94.10;;;;;;5115921;27;20031;-64
2022/07/11 06:23:05;;;;;;;5.93;2.60;;;14.20;93.40;;;;;;5113961;28;21527;-64
2022/07/11 06:25:31;;;;;;;6.57;2.60;;;14.20;93.00;;;;;;5116608;28;20035;-64
2022/07/11 06:27:57;;;;;;;7.38;2.90;;;14.50;93.20;;;;;;5117059;28;20020;-64
2022/07/11 06:30:23;;;;;;;4.95;2.50;;;14.70;93.10;;;;;;5115812;28;20320;-64
2022/07/11 06:32:48;;;;;;;8.48;2.58;;;14.80;92.80;;;;;;5116774;28;20377;-64
2022/07/11 06:35:14;;;;;;;7.97;3.92;;;14.90;92.10;;;;;;5115615;28;20064;-64
2022/07/11 06:37:40;;;;;;;6.55;3.67;;;14.90;93.10;;;;;;5114769;28;20032;-64
2022/07/11 06:40:09;;;;;;;6.65;4.05;;;15.00;93.80;;;;;;5115415;28;20024;-64
2022/07/11 06:42:36;;;;;;;6.40;4.13;;;15.20;94.30;;;;;;5115819;28;20406;-64
2022/07/11 06:45:02;;;;;;;6.70;4.47;;;15.20;94.50;;;;;;5116256;28;20355;-64
2022/07/11 06:47:28;;;;;;;5.65;3.53;;;15.50;93.70;;;;;;5115992;28;20036;-64
2022/07/11 06:49:56;;;;;;;8.75;3.95;;;15.70;93.50;;;;;;5115455;28;20119;-64
2022/07/11 06:52:22;;;;;;;7.70;3.90;;;15.90;92.70;;;;;;5115600;28;20023;-64
2022/07/11 06:54:47;;;;;;;5.07;3.42;;;16.10;92.10;;;;;;5113537;28;20404;-64
2022/07/11 06:57:13;;;;;;;8.10;4.07;;;16.10;92.10;;;;;;5113420;28;20478;-64
2022/07/11 06:59:39;;;;;;;5.70;3.88;;;16.00;92.10;;;;;;5100731;28;20052;-64
2022/07/11 07:02:05;;;;;;;8.45;3.92;;;16.00;92.40;;;;;;5097200;28;20332;-64
2022/07/11 07:04:31;;;;;;;7.32;3.95;;;15.90;92.40;;;;;;5091191;28;20028;-64
2022/07/11 07:06:58;;;;;;;6.95;3.95;;;15.90;92.00;;;;;;5092315;28;20032;-64
2022/07/11 07:09:24;;;;;;;6.55;3.83;;;16.00;92.20;;;;;;5095639;28;20038;-64
2022/07/11 07:11:49;;;;;;;6.88;3.95;;;16.20;92.40;;;;;;5116069;28;20020;-64
2022/07/11 07:14:15;;;;;;;6.20;3.67;;;16.30;91.90;;;;;;5116181;28;20016;-64
2022/07/11 07:16:41;;;;;;;6.43;3.40;;;16.30;91.30;;;;;;5116301;28;20302;-65
2022/07/11 07:19:06;;;;;;;8.10;3.90;;;16.30;91.70;;;;;;5111923;28;20417;-64
2022/07/11 07:21:32;;;;;;;8.02;4.20;;;16.50;91.50;;;;;;5106363;28;20027;-64
2022/07/11 07:23:57;;;;;;;5.25;3.20;;;16.60;90.60;;;;;;5098860;28;20015;-64
2022/07/11 07:26:23;;;;;;;6.72;3.33;;;16.60;91.60;;;;;;5114614;28;20454;-65
2022/07/11 07:28:52;;;;;;;6.35;3.35;;;17.00;90.70;;;;;;5102477;28;20026;-64
2022/07/11 07:31:18;;;;;;;4.47;3.05;;;17.40;89.80;;;;;;5094542;28;20030;-64
2022/07/11 07:33:44;;;;;;;5.40;3.40;;;17.90;88.20;;;;;;5106893;28;20321;-64
2022/07/11 07:36:12;;;;;;;5.38;2.90;;;18.30;86.80;;;;;;5091592;28;20039;-66
2022/07/11 07:38:39;;;;;;;5.75;3.05;;;19.00;85.00;;;;;;5098599;28;20321;-73
2022/07/11 07:41:04;;;;;;;4.72;2.80;;;19.70;82.70;;;;;;5097423;28;20036;-66
2022/07/11 07:43:30;;;;;;;5.47;2.58;;;20.00;82.10;;;;;;5111550;28;20107;-66
2022/07/11 07:45:55;;;;;;;5.65;2.30;;;20.40;80.60;;;;;;5114681;28;20055;-66
2022/07/11 07:48:21;;;;;;;4.95;2.40;;;21.10;79.20;;;;;;5112304;28;20047;-66
2022/07/11 07:50:47;;;;;;;6.82;3.13;;;21.80;76.50;;;;;;5103370;28;20030;-66
2022/07/11 07:53:12;;;;;;;5.28;2.40;;;22.50;75.10;;;;;;5107136;28;20054;-66
2022/07/11 07:55:38;;;;;;;3.72;1.80;;;23.20;72.40;;;;;;5103384;28;20081;-66
2022/07/11 07:58:04;;;;;;;3.72;1.88;;;23.30;73.80;;;;;;5114219;28;20039;-65
2022/07/11 08:03:13;;;;;;;;;;;24.20;70.50;;;;;;5099251;28;20503;-65
2022/07/11 08:05:39;;;;;;;4.05;1.90;;;24.60;69.60;;;;;;5108569;28;19995;-65
2022/07/11 08:08:05;;;;;;;3.10;1.52;;;24.80;68.20;;;;;;5113674;28;20035;-64
2022/07/11 08:10:30;;;;;;;4.22;1.70;;;24.80;68.20;;;;;;5112089;28;20463;-64
2022/07/11 08:12:56;;;;;;;4.80;1.70;;;24.60;69.00;;;;;;5108852;28;20088;-65
2022/07/11 08:15:22;;;;;;;4.95;1.70;;;24.20;69.10;;;;;;5111594;28;20034;-65
2022/07/11 08:17:47;;;;;;;24.52;3.55;;;24.60;70.30;;;;;;5116536;28;20023;-65
2022/07/11 08:20:13;;;;;;;7.88;1.90;;;25.30;68.80;;;;;;5108457;28;20290;-64
2022/07/11 08:22:40;;;;;;;3.75;1.70;;;25.90;66.50;;;;;;5117938;28;20055;-67
2022/07/11 08:25:06;;;;;;;5.85;1.50;;;25.90;66.50;;;;;;5115826;28;20320;-66
2022/07/11 08:27:31;;;;;;;3.95;1.10;;;26.50;65.30;;;;;;5115869;28;20478;-66
2022/07/11 08:29:58;;;;;;;3.33;1.02;;;26.20;63.80;;;;;;5116799;28;20027;-65
2022/07/11 08:32:24;;;;;;;1.83;0.95;;;26.50;64.70;;;;;;5111046;28;20085;-65
2022/07/11 08:34:50;;;;;;;3.03;1.20;;;26.30;64.40;;;;;;5114806;28;20032;-64
2022/07/11 08:37:18;;;;;;;2.47;1.25;;;26.10;63.70;;;;;;5114366;28;20036;-65
2022/07/11 08:39:44;;;;;;;1.98;0.95;;;26.70;63.50;;;;;;5117631;28;20100;-65
2022/07/11 08:42:10;;;;;;;2.75;0.75;;;27.50;62.60;;;;;;5118835;28;20024;-65
2022/07/11 08:44:37;;;;;;;1.70;0.90;;;28.20;60.30;;;;;;5118751;28;20085;-65
2022/07/11 08:47:03;;;;;;;2.15;1.00;;;28.10;61.20;;;;;;5115669;28;20031;-64
2022/07/11 08:49:32;;;;;;;2.55;1.00;;;27.40;61.10;;;;;;5118605;28;20043;-64
2022/07/11 08:51:58;;;;;;;2.75;1.10;;;26.40;63.20;;;;;;5117111;28;20032;-65
2022/07/11 08:54:24;;;;;;;2.72;0.80;;;26.20;64.60;;;;;;5117414;28;20026;-64
2022/07/11 08:56:52;;;;;;;2.35;0.70;;;26.70;60.50;;;;;;5117698;28;20336;-65
2022/07/11 08:59:18;;;;;;;1.58;0.70;;;27.90;60.40;;;;;;5098152;28;20322;-65
2022/07/11 09:01:46;;;;;;;3.42;0.77;;;28.60;58.30;;;;;;5098209;28;20141;-65
2022/07/11 09:04:13;;;;;;;0.93;0.60;;;28.20;58.00;;;;;;5097846;28;20112;-64
2022/07/11 09:06:39;;;;;;;1.92;0.68;;;29.20;57.00;;;;;;5097873;28;20031;-65
2022/07/11 09:09:05;;;;;;;1.48;0.73;;;29.60;56.10;;;;;;5096915;28;20020;-64
2022/07/11 09:11:54;;;;;;;2.00;0.70;;;28.70;57.20;;;;;;5097591;28;20103;-64
2022/07/11 09:14:25;;;;;;;1.33;0.70;;;26.90;58.90;;;;;;5097782;28;20095;-64
2022/07/11 09:16:53;;;;;;;0.63;0.43;;;26.60;60.60;;;;;;5097730;28;20020;-64
2022/07/11 09:19:23;;;;;;;4.13;0.70;;;27.40;56.30;;;;;;5097109;28;20020;-64
2022/07/11 09:28:05;;;;;;;6.25;1.30;;;24.40;62.40;;;;;;5109307;28;20317;-64
2022/07/11 09:30:39;;;;;;;38.92;4.63;;;25.60;63.40;;;;;;5118080;28;20016;-64
2022/07/11 09:33:12;;;;;;;6.70;1.63;;;26.50;59.50;;;;;;5117858;28;20016;-64
2022/07/11 09:35:42;;;;;;;2.83;0.87;;;26.50;59.70;;;;;;5116643;28;20058;-65
2022/07/11 09:38:10;;;;;;;2.72;0.93;;;26.00;61.80;;;;;;5116572;28;20024;-64
2022/07/11 09:40:37;;;;;;;2.10;0.90;;;26.00;60.90;;;;;;5117690;28;20070;-65
2022/07/11 09:43:04;;;;;;;2.25;0.70;;;26.10;60.60;;;;;;5117666;28;20015;-65
2022/07/11 09:45:32;;;;;;;5.43;1.23;;;26.20;62.20;;;;;;5117596;28;20058;-65
2022/07/11 09:48:07;;;;;;;6.13;1.20;;;26.90;59.60;;;;;;5117541;28;20099;-64
2022/07/11 09:50:32;;;;;;;1.08;0.70;;;25.60;60.60;;;;;;5116739;28;20023;-65
2022/07/11 09:53:05;;;;;;;3.10;0.88;;;25.30;61.20;;;;;;5116117;28;20142;-64
2022/07/11 09:55:44;;;;;;;2.33;0.85;;;25.10;62.60;;;;;;5117564;28;20028;-65
2022/07/11 09:58:11;;;;;;;3.50;0.70;;;25.20;63.30;;;;;;5117429;28;20031;-65
2022/07/11 10:00:38;;;;;;;1.73;0.70;;;26.10;62.10;;;;;;5117229;28;20035;-65
2022/07/11 10:03:06;;;;;;;2.83;0.75;;;26.80;59.90;;;;;;5117426;28;20320;-65
2022/07/11 10:05:32;;;;;;;1.50;0.70;;;27.40;59.50;;;;;;5116351;28;20061;-65
2022/07/11 10:07:58;;;;;;;0.98;0.60;;;27.60;58.60;;;;;;5115948;28;20245;-65
2022/07/11 10:10:25;;;;;;;1.63;0.60;;;27.90;58.30;;;;;;5117176;28;20476;-65
2022/07/11 10:12:52;;;;;;;1.75;0.60;;;27.10;59.70;;;;;;5117041;28;20035;-65
2022/07/11 10:15:28;;;;;;;1.85;0.70;;;27.20;57.90;;;;;;5116998;28;20328;-65
2022/07/11 10:18:18;;;;;;;0.82;0.50;;;26.30;60.10;;;;;;5117094;28;20028;-65
2022/07/11 10:20:52;;;;;;;0.88;0.60;;;25.60;62.40;;;;;;5096773;28;20024;-64
2022/07/11 10:23:45;;;;;;;0.73;0.50;;;25.90;61.60;;;;;;5095401;28;20452;-65
2022/07/11 10:26:30;;;;;;;0.50;0.50;;;25.70;61.10;;;;;;5096332;28;20028;-64
2022/07/11 10:29:02;;;;;;;0.70;0.60;;;24.70;62.90;;;;;;5096545;28;20102;-64
2022/07/11 10:31:30;;;;;;;1.30;0.52;;;24.30;65.10;;;;;;5095574;28;20026;-65
2022/07/11 10:34:08;;;;;;;1.00;0.60;;;24.80;63.60;;;;;;5104025;28;20024;-65
2022/07/11 10:36:40;;;;;;;2.55;0.55;;;24.80;62.40;;;;;;5116627;28;20302;-64
2022/07/11 10:39:24;;;;;;;1.10;0.57;;;24.90;62.50;;;;;;5115398;28;20480;-64
2022/07/11 10:41:51;;;;;;;1.83;0.52;;;25.90;61.30;;;;;;5096427;28;20036;-65
2022/07/11 10:44:17;;;;;;;2.58;0.63;;;26.40;59.50;;;;;;5096136;28;20027;-65
2022/07/11 10:46:43;;;;;;;1.25;0.43;;;26.50;58.50;;;;;;5096398;28;20028;-65
2022/07/11 10:49:25;;;;;;;1.83;0.60;;;25.80;59.70;;;;;;5096382;28;20023;-65
2022/07/11 10:52:07;;;;;;;0.90;0.60;;;25.20;62.60;;;;;;5096239;28;20024;-65
2022/07/11 10:54:42;;;;;;;2.83;0.73;;;25.00;62.00;;;;;;5105544;28;20070;-64
2022/07/11 10:57:19;;;;;;;2.40;0.70;;;25.60;61.90;;;;;;5114873;28;20400;-65
2022/07/11 11:00:10;;;;;;;1.08;0.68;;;26.10;60.30;;;;;;5115457;28;20035;-65
2022/07/11 11:03:00;;;;;;;2.35;0.70;;;26.50;61.50;;;;;;5113616;28;20035;-64
2022/07/11 11:05:49;;;;;;;1.45;0.70;;;27.50;59.80;;;;;;5115220;28;20028;-65
2022/07/11 11:11:24;;;;;;;1.30;0.68;;;27.50;57.40;;;;;;5101260;28;20034;-64
2022/07/11 11:14:18;;;;;;;2.15;0.80;;;27.10;58.30;;;;;;5115418;28;20108;-63
2022/07/11 11:16:44;;;;;;;0.75;0.60;;;26.70;59.90;;;;;;5114000;28;21630;-64
2022/07/11 11:19:48;;;;;;;1.60;0.70;;;26.30;60.80;;;;;;5114560;28;20294;-66
2022/07/11 11:22:15;;;;;;;1.95;0.77;;;26.10;60.90;;;;;;5114356;28;20024;-66
2022/07/11 11:24:46;;;;;;;0.90;0.70;;;25.40;61.90;;;;;;5114071;28;20081;-65
2022/07/11 11:27:21;;;;;;;2.75;0.70;;;24.80;63.30;;;;;;5115258;28;20034;-65
2022/07/11 11:29:47;;;;;;;1.60;0.88;;;24.40;64.40;;;;;;5115005;28;20027;-64
2022/07/11 11:32:13;;;;;;;1.27;0.60;;;23.90;64.90;;;;;;5116198;28;20085;-65
2022/07/11 11:34:41;;;;;;;1.65;0.80;;;24.50;65.30;;;;;;5115105;28;20024;-64
2022/07/11 11:37:07;;;;;;;1.83;0.90;;;25.50;63.30;;;;;;5115310;28;20038;-64
2022/07/11 11:39:36;;;;;;;1.08;0.68;;;26.20;60.40;;;;;;5113850;28;20027;-64
2022/07/11 11:42:22;;;;;;;4.65;1.25;;;26.10;61.80;;;;;;5116147;28;20030;-64
2022/07/11 11:45:03;;;;;;;1.92;0.77;;;26.70;60.50;;;;;;5118445;27;20047;-64
2022/07/11 11:47:30;;;;;;;1.98;0.88;;;26.10;61.60;;;;;;5120254;28;20016;-64
2022/07/11 11:49:57;;;;;;;3.03;1.30;;;26.40;60.40;;;;;;5119014;28;20027;-65
2022/07/11 11:52:24;;;;;;;1.80;0.80;;;26.60;60.60;;;;;;5119166;28;20030;-64
2022/07/11 11:54:55;;;;;;;1.17;0.70;;;26.30;60.90;;;;;;5117538;28;20020;-64
2022/07/11 11:57:23;;;;;;;3.05;0.80;;;26.40;60.60;;;;;;5119542;28;20051;-64
2022/07/11 11:59:50;;;;;;;1.70;0.80;;;25.80;61.50;;;;;;5118801;27;20027;-65
2022/07/11 12:02:27;;;;;;;2.35;0.98;;;25.30;62.70;;;;;;5119680;28;20081;-64
2022/07/11 12:04:53;;;;;;;1.40;0.73;;;25.70;62.00;;;;;;5118691;28;20027;-64
2022/07/11 12:07:24;;;;;;;2.40;0.90;;;26.70;60.20;;;;;;5118008;28;20034;-64
2022/07/11 12:09:54;;;;;;;2.20;0.90;;;27.10;59.10;;;;;;5115164;28;20099;-64
2022/07/11 12:15:08;;;;;;;2.42;1.02;;;26.80;59.90;;;;;;5117598;28;20428;-65
2022/07/11 12:17:35;;;;;;;1.25;0.73;;;26.10;60.80;;;;;;5119346;28;20077;-64
2022/07/11 12:20:01;;;;;;;2.78;0.85;;;24.80;63.20;;;;;;5116684;28;20032;-65
2022/07/11 12:22:27;;;;;;;2.20;1.00;;;24.70;64.50;;;;;;5119056;28;20080;-65
2022/07/11 12:24:54;;;;;;;2.20;0.90;;;24.90;65.40;;;;;;5116885;28;20098;-64
2022/07/11 12:27:24;;;;;;;3.22;0.90;;;25.50;62.70;;;;;;5118214;28;20023;-65
2022/07/11 12:29:51;;;;;;;1.55;0.70;;;26.10;60.90;;;;;;5117894;28;20053;-64
2022/07/11 12:32:18;;;;;;;3.85;0.90;;;26.20;60.90;;;;;;5117944;28;20028;-65
2022/07/11 12:34:46;;;;;;;3.28;0.77;;;25.70;62.20;;;;;;5115857;28;20051;-64
2022/07/11 12:37:14;;;;;;;1.67;0.82;;;24.90;64.60;;;;;;5117786;28;20024;-64
2022/07/11 12:39:59;;;;;;;1.20;0.70;;;25.90;64.50;;;;;;5116846;28;20030;-65
2022/07/11 12:42:30;;;;;;;2.55;0.80;;;26.10;62.20;;;;;;5099516;28;20055;-65
2022/07/11 12:44:59;;;;;;;1.92;0.80;;;26.90;61.30;;;;;;5098247;28;20052;-65
2022/07/11 12:47:29;;;;;;;1.88;0.90;;;27.90;59.50;;;;;;5101733;28;20118;-65
2022/07/11 12:49:58;;;;;;;2.80;1.05;;;28.30;58.40;;;;;;5117213;28;20051;-65
2022/07/11 12:52:35;;;;;;;4.70;0.90;;;28.20;59.70;;;;;;5116526;28;20024;-65
2022/07/11 12:55:01;;;;;;;3.83;1.00;;;28.40;57.30;;;;;;5095885;28;20024;-65
2022/07/11 12:57:27;;;;;;;3.17;1.00;;;27.30;57.90;;;;;;5102616;28;20416;-65
2022/07/11 12:59:52;;;;;;;3.22;1.13;;;26.60;59.80;;;;;;5118353;28;20042;-64
2022/07/11 13:02:18;;;;;;;5.55;1.17;;;26.50;61.00;;;;;;5117662;28;20024;-65
2022/07/11 13:04:51;;;;;;;2.83;1.20;;;26.70;60.30;;;;;;5118546;28;20031;-65
2022/07/11 13:10:24;;;;;;;2.45;0.80;;;26.80;59.20;;;;;;5118394;28;20027;-65
2022/07/11 13:12:53;;;;;;;1.98;1.00;;;27.30;59.20;;;;;;5116460;28;20028;-65
2022/07/11 13:15:21;;;;;;;3.50;1.00;;;27.00;59.30;;;;;;5118310;28;20036;-65